Time;durP1;ratioP1;P1;durP2;ratioP2;P2;SDS_P1;SDS_P2;PMS_P1;PMS_P2;Temp;Humidity;BMP_temperature;BMP_pressure;BME280_temperature;BME280_humidity;BME280_pressure;Samples;Min_cycle;Max_cycle;Signal;HPM_P1;HPM_P2
2022/04/04 00:00:54;;;;;;;5.45;2.17;;;;;;;6.12;49.19;101871.75;4952992;28;124177;-64
2022/04/04 00:03:21;;;;;;;4.55;2.80;;;;;;;6.10;49.08;101863.00;4971956;28;113409;-64
2022/04/04 00:05:49;;;;;;;8.20;2.65;;;;;;;6.08;49.37;101865.66;4958188;28;114024;-65
2022/04/04 00:08:16;;;;;;;4.18;2.50;;;;;;;6.06;49.32;101861.31;4957577;28;124590;-65
2022/04/04 00:10:43;;;;;;;3.78;2.35;;;;;;;6.03;49.23;101847.31;4963061;28;124802;-65
2022/04/04 00:13:11;;;;;;;8.43;2.40;;;;;;;6.03;49.43;101852.56;4961612;28;114329;-64
2022/04/04 00:15:38;;;;;;;4.95;2.70;;;;;;;6.04;49.36;101849.03;4980106;28;113145;-64
2022/04/04 00:18:07;;;;;;;3.85;2.40;;;;;;;6.01;49.63;101849.06;4946865;28;122768;-65
2022/04/04 00:20:34;;;;;;;4.88;2.80;;;;;;;6.01;49.41;101843.81;4953783;28;124074;-66
2022/04/04 00:23:01;;;;;;;6.22;2.88;;;;;;;6.01;49.48;101838.56;4963738;28;114941;-65
2022/04/04 00:25:29;;;;;;;5.78;2.30;;;;;;;6.02;49.66;101839.41;4976819;28;112859;-66
2022/04/04 00:27:57;;;;;;;4.28;2.67;;;;;;;6.02;49.67;101832.41;4959072;28;124230;-66
2022/04/04 00:30:24;;;;;;;5.20;2.70;;;;;;;6.02;49.46;101829.75;4973484;28;122979;-65
2022/04/04 00:32:51;;;;;;;5.40;3.00;;;;;;;6.01;49.61;101828.03;4953964;28;115196;-65
2022/04/04 00:35:18;;;;;;;4.68;2.72;;;;;;;6.00;49.69;101826.28;4966449;28;117658;-65
2022/04/04 00:37:46;;;;;;;6.00;3.00;;;;;;;5.98;49.62;101817.53;4956536;28;124080;-65
2022/04/04 00:40:14;;;;;;;5.32;3.13;;;;;;;5.98;49.60;101820.16;4958044;28;124206;-66
2022/04/04 00:42:41;;;;;;;4.97;2.78;;;;;;;5.96;49.68;101814.06;4956702;28;114128;-66
2022/04/04 00:45:09;;;;;;;5.15;2.75;;;;;;;5.94;49.67;101809.69;4962316;28;114493;-66
2022/04/04 00:47:36;;;;;;;6.75;3.20;;;;;;;5.93;49.44;101813.19;4968740;28;124039;-65
2022/04/04 00:50:04;;;;;;;6.68;3.33;;;;;;;5.91;49.49;101800.03;4958298;28;125472;-66
2022/04/04 00:52:31;;;;;;;6.22;3.33;;;;;;;5.90;49.64;101803.59;4968450;28;114103;-66
2022/04/04 00:54:58;;;;;;;7.30;3.33;;;;;;;5.89;49.71;101801.81;4962295;28;114239;-65
2022/04/04 00:57:28;;;;;;;8.50;3.78;;;;;;;5.86;49.65;101796.63;4961244;28;124763;-65
2022/04/04 00:59:56;;;;;;;6.03;3.28;;;;;;;5.86;49.71;101796.63;4957144;28;124344;-65
2022/04/04 01:02:23;;;;;;;8.40;4.00;;;;;;;5.86;49.73;101791.38;4964004;28;114337;-65
2022/04/04 01:04:50;;;;;;;7.07;3.70;;;;;;;5.85;49.65;101784.34;4961333;28;112857;-64
2022/04/04 01:07:17;;;;;;;7.53;4.00;;;;;;;5.84;49.66;101782.63;4959848;28;124584;-65
2022/04/04 01:09:44;;;;;;;7.72;3.83;;;;;;;5.82;49.80;101779.09;4955932;28;123881;-65
2022/04/04 01:12:13;;;;;;;8.27;3.80;;;;;;;5.82;49.99;101773.84;4960999;28;114046;-65
2022/04/04 01:14:47;;;;;;;9.18;4.05;;;;;;;5.82;49.62;101769.50;4964752;28;113695;-65
2022/04/04 01:17:16;;;;;;;8.03;4.27;;;;;;;5.81;49.90;101772.13;4955682;28;124084;-64
2022/04/04 01:19:43;;;;;;;6.75;3.95;;;;;;;5.81;49.66;101772.13;4954957;28;123901;-65
2022/04/04 01:22:12;;;;;;;8.23;4.60;;;;;;;5.78;49.66;101757.28;4961026;28;116222;-64
2022/04/04 01:24:42;;;;;;;8.32;3.92;;;;;;;5.77;49.75;101759.91;4960671;28;115100;-65
2022/04/04 01:27:11;;;;;;;7.72;4.53;;;;;;;5.74;49.86;101742.38;4957398;28;124227;-64
2022/04/04 01:29:39;;;;;;;9.95;4.63;;;;;;;5.73;49.75;101742.44;4957805;28;124072;-65
2022/04/04 01:32:07;;;;;;;7.60;4.53;;;;;;;5.71;49.75;101738.91;4964090;28;113960;-64
2022/04/04 01:34:35;;;;;;;10.10;4.60;;;;;;;5.69;49.94;101735.44;4963323;28;114126;-63
2022/04/04 01:37:03;;;;;;;8.45;4.68;;;;;;;5.68;49.88;101733.72;4956634;28;124574;-65
2022/04/04 01:39:31;;;;;;;8.90;4.88;;;;;;;5.67;50.00;101722.34;4965121;28;123126;-65
2022/04/04 01:41:58;;;;;;;13.07;5.53;;;;;;;5.65;50.04;101722.34;4955433;28;114097;-65
2022/04/04 01:44:25;;;;;;;7.95;4.80;;;;;;;5.65;49.93;101719.72;4963051;28;114363;-65
2022/04/04 01:46:53;;;;;;;7.05;4.53;;;;;;;5.64;49.87;101717.97;4964784;28;124251;-65
2022/04/04 01:49:20;;;;;;;8.18;5.03;;;;;;;5.62;49.76;101698.72;4957700;28;123812;-65
2022/04/04 01:51:48;;;;;;;10.23;4.75;;;;;;;5.62;50.14;101697.84;4955025;28;114469;-65
2022/04/04 01:54:15;;;;;;;7.53;4.40;;;;;;;5.61;50.01;101697.00;4957933;28;114594;-65
2022/04/04 01:56:43;;;;;;;7.22;4.47;;;;;;;5.61;50.06;101689.13;4964595;28;123928;-65
2022/04/04 01:59:10;;;;;;;6.85;4.28;;;;;;;5.60;50.07;101674.22;4956812;28;124155;-65
2022/04/04 02:01:38;;;;;;;7.65;4.30;;;;;;;5.60;50.35;101674.22;4965515;28;114858;-65
2022/04/04 02:04:09;;;;;;;9.27;4.40;;;;;;;5.60;50.25;101671.59;4955007;28;113948;-65
2022/04/04 02:06:37;;;;;;;8.65;4.50;;;;;;;5.59;50.01;101661.97;4976530;28;123049;-65
2022/04/04 02:09:05;;;;;;;8.05;4.43;;;;;;;5.60;49.98;101657.59;4964960;28;124060;-65
2022/04/04 02:11:32;;;;;;;7.97;4.63;;;;;;;5.58;50.14;101654.97;4964517;28;115573;-65
2022/04/04 02:14:02;;;;;;;8.07;4.32;;;;;;;5.59;50.14;101653.22;4961843;28;115215;-65
2022/04/04 02:16:29;;;;;;;8.23;4.55;;;;;;;5.59;50.23;101645.31;4955340;28;124331;-65
2022/04/04 02:18:56;;;;;;;9.10;4.50;;;;;;;5.58;50.25;101643.59;4956892;28;123975;-66
2022/04/04 02:21:23;;;;;;;8.75;4.65;;;;;;;5.57;50.18;101642.72;4957507;28;115007;-65
2022/04/04 02:23:52;;;;;;;7.13;4.40;;;;;;;5.55;49.98;101641.88;4956761;28;114371;-65
2022/04/04 02:26:19;;;;;;;8.32;4.68;;;;;;;5.54;50.19;101637.50;4962650;28;123857;-65
2022/04/04 02:28:46;;;;;;;10.32;5.10;;;;;;;5.54;50.28;101629.63;4956221;28;124396;-65
2022/04/04 02:31:14;;;;;;;8.88;4.70;;;;;;;5.56;50.54;101619.97;4962860;28;114452;-65
2022/04/04 02:33:42;;;;;;;8.82;4.97;;;;;;;5.57;50.34;101615.56;4951144;28;114281;-65
2022/04/04 02:36:09;;;;;;;9.57;5.15;;;;;;;5.58;50.28;101618.19;4963444;28;123508;-65
2022/04/04 02:38:36;;;;;;;8.55;4.80;;;;;;;5.61;50.49;101606.75;4967922;28;124170;-64
2022/04/04 02:41:04;;;;;;;8.73;5.30;;;;;;;5.62;50.29;101604.13;4956885;28;115414;-65
2022/04/04 02:43:32;;;;;;;11.70;4.93;;;;;;;5.64;50.26;101596.22;4958441;28;113952;-65
2022/04/04 02:45:59;;;;;;;9.55;4.72;;;;;;;5.64;50.20;101597.09;4956973;28;124350;-65
2022/04/04 02:48:26;;;;;;;9.90;4.78;;;;;;;5.66;50.40;101589.19;4960368;28;124671;-66
2022/04/04 02:50:53;;;;;;;9.20;4.53;;;;;;;5.68;50.42;101589.19;4962089;28;115069;-66
2022/04/04 02:53:20;;;;;;;11.30;4.60;;;;;;;5.70;50.24;101582.13;4963671;28;116899;-65
2022/04/04 02:58:34;;;;;;;9.15;4.40;;;;;;;5.74;50.23;101568.06;4959013;28;124296;-65
2022/04/04 03:01:03;;;;;;;7.38;4.53;;;;;;;5.76;50.16;101564.50;4960114;28;115292;-65
2022/04/04 03:03:30;;;;;;;7.65;4.70;;;;;;;5.78;50.33;101559.25;4962164;28;114886;-66
2022/04/04 03:05:58;;;;;;;8.80;4.80;;;;;;;5.81;50.36;101561.84;4959155;28;123988;-66
2022/04/04 03:08:25;;;;;;;10.27;4.70;;;;;;;5.84;50.45;101556.53;4958132;28;124521;-66
2022/04/04 03:10:52;;;;;;;7.70;4.53;;;;;;;5.87;50.42;101540.72;4962865;28;114692;-65
2022/04/04 03:13:19;;;;;;;7.82;4.45;;;;;;;5.89;50.29;101540.69;4960883;28;114418;-65
2022/04/04 03:15:46;;;;;;;8.18;4.20;;;;;;;5.92;50.43;101544.16;4961907;28;124825;-65
2022/04/04 03:18:14;;;;;;;8.45;4.43;;;;;;;5.95;50.49;101533.63;4954963;28;124630;-65
2022/04/04 03:20:41;;;;;;;9.38;4.05;;;;;;;5.96;50.44;101530.09;4958572;28;113705;-65
2022/04/04 03:23:08;;;;;;;6.57;3.83;;;;;;;6.00;50.25;101518.63;4975081;28;113660;-65
2022/04/04 03:25:35;;;;;;;7.35;4.20;;;;;;;6.06;50.43;101524.69;4950577;28;123896;-65
2022/04/04 03:28:02;;;;;;;9.23;3.92;;;;;;;6.09;50.42;101514.16;4960396;28;124165;-65
2022/04/04 03:30:29;;;;;;;5.93;3.60;;;;;;;6.12;50.31;101516.72;4947907;28;114850;-65
2022/04/04 03:32:57;;;;;;;7.43;3.88;;;;;;;6.17;50.36;101512.25;4954280;28;113793;-65
2022/04/04 03:35:27;;;;;;;11.88;3.90;;;;;;;6.20;50.39;101501.69;4956148;28;124225;-65
2022/04/04 03:37:56;;;;;;;6.82;3.17;;;;;;;6.26;50.50;101495.47;4962015;28;123910;-65
2022/04/04 03:40:23;;;;;;;6.45;3.60;;;;;;;6.29;50.38;101488.41;4959802;28;115603;-65
2022/04/04 03:42:54;;;;;;;5.65;3.50;;;;;;;6.34;50.50;101478.63;4957539;28;114180;-65
2022/04/04 03:45:22;;;;;;;6.00;3.30;;;;;;;6.39;50.43;101479.44;4952850;28;124224;-65
2022/04/04 03:47:49;;;;;;;5.82;3.63;;;;;;;6.43;50.49;101470.59;4952353;28;124067;-65
2022/04/04 03:50:17;;;;;;;5.57;3.42;;;;;;;6.49;50.16;101466.13;4955810;28;115236;-65
2022/04/04 03:52:53;;;;;;;6.05;3.33;;;;;;;6.53;50.36;101467.78;4955034;28;115520;-65
2022/04/04 03:55:23;;;;;;;6.47;3.35;;;;;;;6.57;50.01;101458.94;4957800;28;124542;-66
2022/04/04 03:57:51;;;;;;;8.75;3.67;;;;;;;6.59;50.41;101454.50;4952853;28;123887;-66
2022/04/04 04:00:19;;;;;;;6.32;3.60;;;;;;;6.62;50.36;101447.44;4969170;28;113683;-65
2022/04/04 04:02:46;;;;;;;6.32;3.40;;;;;;;6.66;50.25;101442.13;4957843;28;114830;-65
2022/04/04 04:05:14;;;;;;;6.45;4.05;;;;;;;6.68;50.09;101441.19;4974487;28;122843;-66
2022/04/04 04:07:42;;;;;;;6.70;3.53;;;;;;;6.69;50.17;101437.66;4953777;28;124004;-66
2022/04/04 04:10:11;;;;;;;6.03;3.35;;;;;;;6.72;50.04;101427.06;4960949;28;114519;-65
2022/04/04 04:12:42;;;;;;;6.53;3.75;;;;;;;6.74;50.33;101430.56;4957227;28;113446;-66
2022/04/04 04:15:16;;;;;;;7.25;3.60;;;;;;;6.75;50.25;101429.66;4954455;28;122954;-65
2022/04/04 04:17:44;;;;;;;7.43;3.30;;;;;;;6.77;49.99;101430.47;4952933;28;124930;-65
2022/04/04 04:20:20;;;;;;;9.32;3.70;;;;;;;6.79;50.04;101428.69;4951731;28;114061;-66
2022/04/04 04:22:54;;;;;;;6.75;3.33;;;;;;;6.79;50.09;101418.16;4958667;28;114094;-65
2022/04/04 04:25:24;;;;;;;6.45;3.72;;;;;;;6.81;49.95;101405.81;4961024;28;127520;-66
2022/04/04 04:27:51;;;;;;;7.95;3.55;;;;;;;6.82;50.11;101407.56;4958103;28;124646;-66
2022/04/04 04:30:19;;;;;;;7.72;3.42;;;;;;;6.85;50.29;101389.97;4954439;28;114916;-65
2022/04/04 04:32:49;;;;;;;5.63;3.53;;;;;;;6.86;50.14;101397.00;4954029;28;113573;-65
2022/04/04 04:35:18;;;;;;;9.13;3.85;;;;;;;6.86;50.00;101391.72;4963270;28;124744;-65
2022/04/04 04:37:45;;;;;;;9.18;4.10;;;;;;;6.87;49.96;101388.16;4952543;28;124409;-65
2022/04/04 04:40:14;;;;;;;5.55;3.45;;;;;;;6.88;50.06;101384.66;4957660;28;115362;-65
2022/04/04 04:42:44;;;;;;;10.80;3.88;;;;;;;6.88;49.97;101379.38;4959163;28;115271;-66
2022/04/04 04:45:12;;;;;;;9.23;4.10;;;;;;;6.89;50.15;101370.56;4955606;28;124196;-65
2022/04/04 04:47:40;;;;;;;8.02;3.95;;;;;;;6.92;50.22;101370.53;4952476;28;123838;-66
2022/04/04 04:50:12;;;;;;;6.85;3.97;;;;;;;6.92;50.00;101360.00;4954883;28;114426;-65
2022/04/04 04:52:41;;;;;;;7.32;4.05;;;;;;;6.93;50.03;101356.44;4958526;28;114157;-65
2022/04/04 04:55:10;;;;;;;6.25;4.10;;;;;;;6.95;50.12;101354.63;4959008;28;125574;-65
2022/04/04 04:57:38;;;;;;;6.35;3.97;;;;;;;6.96;49.94;101351.13;4968586;28;122728;-65
2022/04/04 05:00:10;;;;;;;6.28;3.67;;;;;;;6.97;50.13;101337.06;4954778;28;114149;-65
2022/04/04 05:02:37;;;;;;;8.23;4.53;;;;;;;6.99;50.07;101340.53;4954606;28;114539;-65
2022/04/04 05:05:05;;;;;;;9.75;4.22;;;;;;;7.00;50.22;101337.84;4969155;28;123002;-65
2022/04/04 05:07:32;;;;;;;6.55;4.35;;;;;;;7.02;50.18;101324.63;4954831;28;124252;-65
2022/04/04 05:10:00;;;;;;;7.13;4.22;;;;;;;7.01;50.28;101323.78;4955568;28;114368;-65
2022/04/04 05:12:27;;;;;;;7.72;4.07;;;;;;;7.04;50.36;101317.56;4964297;28;114058;-64
2022/04/04 05:14:55;;;;;;;7.45;4.10;;;;;;;7.04;50.04;101317.56;4962628;28;124341;-65
2022/04/04 05:17:22;;;;;;;7.35;4.20;;;;;;;7.04;49.96;101322.81;4956471;28;124685;-64
2022/04/04 05:19:49;;;;;;;9.60;4.53;;;;;;;7.05;50.19;101311.41;4972562;28;113185;-65
2022/04/04 05:22:16;;;;;;;8.15;4.13;;;;;;;7.07;50.31;101296.44;4962225;28;113882;-65
2022/04/04 05:24:43;;;;;;;7.97;3.90;;;;;;;7.09;50.21;101294.63;4959868;28;123980;-64
2022/04/04 05:27:10;;;;;;;7.32;4.50;;;;;;;7.13;50.38;101291.00;4965068;28;123882;-65
2022/04/04 05:29:38;;;;;;;8.48;4.70;;;;;;;7.14;50.38;101282.22;4975670;28;115779;-64
2022/04/04 05:32:05;;;;;;;8.57;4.43;;;;;;;7.16;50.53;101280.41;4951616;28;115026;-65
2022/04/04 05:34:32;;;;;;;9.52;4.57;;;;;;;7.19;50.51;101285.59;4954397;28;123931;-65
2022/04/04 05:36:59;;;;;;;9.65;4.47;;;;;;;7.22;50.42;101275.00;4952788;28;124169;-65
2022/04/04 05:39:27;;;;;;;7.50;4.30;;;;;;;7.26;50.39;101269.66;4951677;28;114515;-65
2022/04/04 05:41:54;;;;;;;9.25;4.45;;;;;;;7.30;50.36;101260.78;4950993;28;114446;-65
2022/04/04 05:44:21;;;;;;;8.43;4.35;;;;;;;7.33;50.45;101255.44;4953862;28;123844;-65
2022/04/04 05:46:48;;;;;;;8.88;4.72;;;;;;;7.37;50.46;101251.81;4951916;28;123788;-65
2022/04/04 05:49:15;;;;;;;7.80;4.55;;;;;;;7.40;50.29;101241.19;4952624;28;114512;-65
2022/04/04 05:51:43;;;;;;;9.65;4.88;;;;;;;7.43;50.28;101235.84;4951335;28;113824;-65
2022/04/04 05:54:27;;;;;;;9.02;4.65;;;;;;;7.47;50.54;101221.69;4952627;28;122992;-65
2022/04/04 05:56:55;;;;;;;9.07;4.82;;;;;;;7.50;50.24;101221.59;4953824;28;123781;-65
2022/04/04 05:59:24;;;;;;;9.70;4.65;;;;;;;7.54;50.54;101217.97;4951670;28;114106;-66
2022/04/04 06:01:52;;;;;;;9.52;5.13;;;;;;;7.58;50.42;101214.34;4952193;28;114537;-65
2022/04/04 06:04:20;;;;;;;10.60;4.68;;;;;;;7.62;50.33;101211.66;4957557;28;122992;-65
2022/04/04 06:06:47;;;;;;;7.85;4.55;;;;;;;7.66;50.52;101210.66;4967189;28;124288;-65
2022/04/04 06:09:15;;;;;;;9.80;5.20;;;;;;;7.70;50.78;101207.03;4953546;28;113118;-65
2022/04/04 06:11:42;;;;;;;9.60;5.10;;;;;;;7.74;50.49;101198.13;4955737;28;114384;-65
2022/04/04 06:14:09;;;;;;;8.98;4.72;;;;;;;7.79;50.30;101196.22;4959531;28;124114;-65
2022/04/04 06:16:36;;;;;;;10.02;5.60;;;;;;;7.84;50.79;101188.22;4955449;28;123921;-66
2022/04/04 06:19:03;;;;;;;9.90;5.43;;;;;;;7.87;50.53;101186.31;4956360;28;115088;-66
2022/04/04 06:21:31;;;;;;;10.02;5.03;;;;;;;7.91;50.50;101182.72;4959343;28;115246;-65
2022/04/04 06:23:58;;;;;;;9.57;5.15;;;;;;;7.96;50.52;101188.69;4956600;28;124344;-65
2022/04/04 06:26:26;;;;;;;9.50;5.15;;;;;;;7.99;50.60;101188.63;4951020;28;124191;-65
2022/04/04 06:28:54;;;;;;;11.18;5.72;;;;;;;8.04;50.26;101182.34;4951128;28;114703;-66
2022/04/04 06:31:22;;;;;;;10.73;4.90;;;;;;;8.08;50.09;101176.06;4952012;28;114772;-65
2022/04/04 06:33:49;;;;;;;9.80;5.15;;;;;;;8.13;50.62;101185.56;4952147;28;122963;-66
2022/04/04 06:36:16;;;;;;;10.35;5.00;;;;;;;8.19;50.58;101187.16;4950990;28;124019;-65
2022/04/04 06:38:43;;;;;;;10.20;5.35;;;;;;;8.23;50.35;101186.19;4950495;28;115143;-65
2022/04/04 06:41:11;;;;;;;9.70;5.00;;;;;;;8.31;50.25;101168.34;4950794;28;114157;-65
2022/04/04 06:43:39;;;;;;;9.32;5.50;;;;;;;8.38;50.58;101164.59;4967614;28;123984;-66
2022/04/04 06:46:06;;;;;;;9.80;5.38;;;;;;;8.46;50.28;101158.25;4950600;28;123743;-66
2022/04/04 06:48:35;;;;;;;9.15;5.18;;;;;;;8.52;50.27;101150.16;4950988;28;114767;-66
2022/04/04 06:51:02;;;;;;;11.05;5.53;;;;;;;8.57;50.09;101148.22;4965064;28;113968;-65
2022/04/04 06:53:29;;;;;;;9.18;5.15;;;;;;;8.62;50.30;101140.16;4951363;28;124036;-65
2022/04/04 06:55:57;;;;;;;9.63;5.53;;;;;;;8.66;50.38;101139.97;4966217;28;123964;-65
2022/04/04 06:58:26;;;;;;;11.25;5.32;;;;;;;8.72;50.02;101137.16;4951857;28;114323;-65
2022/04/04 07:00:53;;;;;;;9.63;5.40;;;;;;;8.79;49.83;101136.97;4950116;28;114047;-65
2022/04/04 07:03:20;;;;;;;12.98;5.38;;;;;;;8.84;50.30;101129.75;4956524;28;124169;-65
2022/04/04 07:05:49;;;;;;;10.55;5.50;;;;;;;8.89;50.08;101127.81;4955770;28;124530;-65
2022/04/04 07:08:22;;;;;;;10.93;5.38;;;;;;;8.93;50.11;101129.44;4950502;28;115705;-64
2022/04/04 07:10:49;;;;;;;8.65;5.40;;;;;;;8.97;49.93;101117.88;4950593;28;115710;-65
2022/04/04 07:13:17;;;;;;;10.98;5.60;;;;;;;9.01;49.78;101101.00;4951108;28;123773;-65
2022/04/04 07:15:45;;;;;;;9.38;5.10;;;;;;;9.05;49.57;101097.31;4949476;28;124436;-65
2022/04/04 07:18:12;;;;;;;10.73;5.30;;;;;;;9.10;49.77;101105.97;4949723;28;114340;-65
2022/04/04 07:20:39;;;;;;;10.23;4.85;;;;;;;9.14;49.45;101099.63;4949619;28;113925;-65
2022/04/04 07:23:06;;;;;;;9.32;5.15;;;;;;;9.19;49.35;101094.19;4950528;28;124005;-65
2022/04/04 07:25:35;;;;;;;10.75;5.40;;;;;;;9.23;49.73;101087.00;4963788;28;124499;-66
2022/04/04 07:28:03;;;;;;;9.82;5.35;;;;;;;9.26;49.54;101089.56;4956011;28;114336;-66
2022/04/04 07:30:30;;;;;;;9.43;5.28;;;;;;;9.29;49.31;101086.81;4954007;28;113894;-66
2022/04/04 07:32:57;;;;;;;7.93;4.60;;;;;;;9.32;49.17;101086.69;4954179;28;123823;-67
2022/04/04 07:35:24;;;;;;;8.20;5.30;;;;;;;9.34;49.00;101067.22;4950279;28;124169;-66
2022/04/04 07:37:52;;;;;;;11.20;5.03;;;;;;;9.40;49.54;101071.44;4967997;28;113717;-66
2022/04/04 07:40:20;;;;;;;8.73;4.65;;;;;;;9.45;49.54;101069.47;4951032;28;115605;-66
2022/04/04 07:42:48;;;;;;;13.95;5.20;;;;;;;9.50;49.25;101074.59;4966365;28;124308;-66
2022/04/04 07:45:17;;;;;;;8.32;4.70;;;;;;;9.53;48.97;101067.41;4949300;28;124267;-66
2022/04/04 07:47:46;;;;;;;8.70;4.57;;;;;;;9.58;48.94;101058.44;4950267;28;114756;-66
2022/04/04 07:50:15;;;;;;;8.27;4.53;;;;;;;9.62;48.82;101049.47;4951004;28;113196;-67
2022/04/04 07:52:43;;;;;;;9.25;5.10;;;;;;;9.68;49.33;101043.94;4950704;28;125149;-66
2022/04/04 07:55:10;;;;;;;8.13;4.90;;;;;;;9.73;48.90;101042.00;4951263;28;124024;-67
2022/04/04 07:57:38;;;;;;;8.63;4.40;;;;;;;9.78;48.77;101045.31;4951697;28;115649;-66
2022/04/04 08:00:07;;;;;;;7.22;4.57;;;;;;;9.82;48.85;101038.13;4948851;28;115269;-66
2022/04/04 08:02:35;;;;;;;7.85;4.38;;;;;;;9.85;48.65;101041.53;4949699;28;124802;-66
2022/04/04 08:05:04;;;;;;;8.00;4.32;;;;;;;9.89;48.70;101027.25;4949108;28;123748;-66
2022/04/04 08:07:31;;;;;;;9.73;4.45;;;;;;;9.94;48.65;101041.19;4960230;28;114330;-66
2022/04/04 08:09:58;;;;;;;9.57;5.13;;;;;;;9.97;48.82;101028.75;4948715;28;115087;-66
2022/04/04 08:12:27;;;;;;;9.77;4.78;;;;;;;10.01;48.64;101025.03;4949190;28;124284;-66
2022/04/04 08:14:56;;;;;;;7.32;4.47;;;;;;;10.04;48.39;100996.69;4949718;28;126066;-66
2022/04/04 08:17:24;;;;;;;7.82;5.15;;;;;;;10.07;48.65;101003.63;4965729;28;115104;-67
2022/04/04 08:19:51;;;;;;;7.40;4.75;;;;;;;10.11;48.57;100997.28;4951831;28;114486;-66
2022/04/04 08:22:19;;;;;;;7.95;4.68;;;;;;;10.14;48.33;100994.53;4948249;28;124949;-66
2022/04/04 08:24:46;;;;;;;8.07;4.25;;;;;;;10.17;48.40;100991.75;4950673;28;124024;-66
2022/04/04 08:27:13;;;;;;;6.97;4.50;;;;;;;10.19;48.13;100976.66;4953384;28;114712;-66
2022/04/04 08:29:40;;;;;;;11.55;4.85;;;;;;;10.21;48.53;100974.81;4952569;28;114772;-66
2022/04/04 08:32:08;;;;;;;7.72;4.80;;;;;;;10.26;48.23;100961.38;4949065;28;124167;-66
2022/04/04 08:34:37;;;;;;;7.13;4.55;;;;;;;10.31;48.15;100965.59;4966916;28;124110;-66
2022/04/04 08:37:04;;;;;;;11.77;5.53;;;;;;;10.33;48.17;100950.50;4949360;28;114427;-66
2022/04/04 08:39:31;;;;;;;9.65;5.05;;;;;;;10.38;48.46;100954.72;4952484;28;114359;-66
2022/04/04 08:41:58;;;;;;;10.57;5.13;;;;;;;10.43;48.24;100947.47;4948141;28;124059;-66
2022/04/04 08:44:26;;;;;;;9.52;4.78;;;;;;;10.46;48.23;100942.06;4951604;28;124155;-66
2022/04/04 08:46:53;;;;;;;10.05;5.25;;;;;;;10.49;48.25;100941.91;4951150;28;115401;-66
2022/04/04 08:49:20;;;;;;;9.48;5.20;;;;;;;10.51;48.54;100910.94;4952484;28;114826;-66
2022/04/04 08:51:48;;;;;;;8.60;5.47;;;;;;;10.54;48.04;100918.72;4953630;28;124343;-66
2022/04/04 08:54:16;;;;;;;8.25;5.13;;;;;;;10.59;48.49;100911.44;4962239;28;124328;-66
2022/04/04 08:56:43;;;;;;;8.40;4.93;;;;;;;10.64;48.26;100925.38;4952388;28;114161;-67
2022/04/04 08:59:10;;;;;;;9.90;4.97;;;;;;;10.67;48.23;100904.00;4952288;28;114036;-66
2022/04/04 09:01:38;;;;;;;9.23;5.03;;;;;;;10.70;47.92;100903.91;4951377;28;124842;-66
2022/04/04 09:04:06;;;;;;;8.02;5.00;;;;;;;10.76;47.81;100901.91;4954728;28;123980;-66
2022/04/04 09:06:52;;;;;;;10.18;5.00;;;;;;;10.80;48.26;100892.88;4954653;28;114754;-66
2022/04/04 09:09:38;;;;;;;9.68;4.80;;;;;;;10.84;48.09;100899.75;4952124;28;114031;-66
2022/04/04 09:12:11;;;;;;;10.25;4.95;;;;;;;10.87;47.69;100899.63;4950827;28;124365;-67
2022/04/04 09:14:42;;;;;;;7.38;4.65;;;;;;;10.91;47.82;100890.59;4954544;28;124112;-66
2022/04/04 09:17:11;;;;;;;10.20;4.60;;;;;;;10.93;47.41;100883.44;4953260;28;113410;-67
2022/04/04 09:19:39;;;;;;;7.93;4.07;;;;;;;10.94;47.49;100879.84;4951451;28;114398;-67
2022/04/04 09:22:11;;;;;;;11.70;4.80;;;;;;;10.97;47.54;100878.88;4954138;28;124554;-67
2022/04/04 09:24:55;;;;;;;7.15;4.53;;;;;;;10.98;47.41;100881.47;4952762;28;123783;-67
2022/04/04 09:27:36;;;;;;;7.25;4.25;;;;;;;11.00;47.38;100874.28;4957166;28;114385;-68
2022/04/04 09:30:06;;;;;;;14.82;4.90;;;;;;;11.02;47.47;100892.75;4957056;28;114574;-67
2022/04/04 09:32:40;;;;;;;7.50;4.72;;;;;;;11.01;47.33;100876.00;4957251;28;125321;-67
2022/04/04 09:35:13;;;;;;;11.65;4.88;;;;;;;11.01;47.52;100870.69;4960780;28;123838;-67
2022/04/04 09:37:44;;;;;;;6.97;4.85;;;;;;;11.03;47.55;100868.81;4957167;28;115668;-66
2022/04/04 09:40:14;;;;;;;10.30;5.43;;;;;;;11.07;47.32;100865.09;4960994;28;115041;-67
2022/04/04 09:43:02;;;;;;;9.45;4.65;;;;;;;11.05;47.42;100872.25;4968545;28;124576;-67
2022/04/04 09:45:30;;;;;;;10.93;5.05;;;;;;;11.03;47.73;100879.44;4965634;28;122973;-66
2022/04/04 09:47:59;;;;;;;8.40;5.13;;;;;;;10.99;47.58;100867.25;4960964;28;114580;-67
2022/04/04 09:50:46;;;;;;;10.43;5.50;;;;;;;10.92;47.54;100857.88;4958254;28;114216;-67
2022/04/04 09:53:22;;;;;;;10.15;4.93;;;;;;;10.87;47.65;100862.53;4959446;28;124598;-67
2022/04/04 09:55:52;;;;;;;11.05;5.28;;;;;;;10.81;48.00;100853.09;4957777;28;123503;-68
2022/04/04 09:58:23;;;;;;;9.57;5.32;;;;;;;10.77;47.91;100855.91;4959152;28;114291;-66
2022/04/04 10:00:53;;;;;;;8.55;5.55;;;;;;;10.72;48.08;100842.91;4958825;28;114847;-67
2022/04/04 10:03:21;;;;;;;7.57;4.45;;;;;;;10.67;48.43;100851.03;4959674;28;124069;-66
2022/04/04 10:05:54;;;;;;;7.80;5.10;;;;;;;10.62;48.58;100847.72;4957155;28;124227;-67
2022/04/04 10:08:24;;;;;;;8.07;5.20;;;;;;;10.59;48.47;100837.28;4965222;28;114440;-67
2022/04/04 10:10:54;;;;;;;9.40;5.25;;;;;;;10.56;48.87;100837.44;4960835;28;114101;-67
2022/04/04 10:13:23;;;;;;;10.77;5.68;;;;;;;10.52;48.90;100830.56;4963238;28;124091;-67
2022/04/04 10:15:52;;;;;;;9.40;5.60;;;;;;;10.48;48.98;100839.56;4957733;28;123887;-67
2022/04/04 10:18:20;;;;;;;10.73;5.78;;;;;;;10.43;49.09;100831.81;4961520;28;114597;-67
2022/04/04 10:20:55;;;;;;;8.55;5.32;;;;;;;10.41;49.10;100832.81;4960869;28;113967;-67
2022/04/04 10:23:24;;;;;;;8.80;5.50;;;;;;;10.36;49.51;100840.09;4969890;28;123969;-67
2022/04/04 10:25:53;;;;;;;8.55;5.68;;;;;;;10.32;49.34;100819.06;4968201;28;124644;-68
2022/04/04 10:28:32;;;;;;;11.48;6.15;;;;;;;10.28;49.60;100812.16;4965972;28;115620;-68
2022/04/04 10:31:09;;;;;;;9.63;5.78;;;;;;;10.27;49.52;100810.44;4963835;28;115356;-68
2022/04/04 10:33:37;;;;;;;9.27;5.75;;;;;;;10.25;49.85;100812.28;4951279;28;123096;-68
2022/04/04 10:36:10;;;;;;;14.85;5.32;;;;;;;10.23;50.03;100808.84;4967949;28;123178;-68
2022/04/04 10:38:45;;;;;;;8.68;5.75;;;;;;;10.22;50.13;100806.28;4956975;28;114530;-67
2022/04/04 10:41:21;;;;;;;9.10;5.45;;;;;;;10.23;50.28;100823.88;4969170;28;114048;-68
2022/04/04 10:43:53;;;;;;;12.90;6.28;;;;;;;10.23;50.30;100808.84;4959720;28;123889;-68
2022/04/04 10:46:23;;;;;;;9.30;5.55;;;;;;;10.22;50.60;100801.84;4971062;28;122683;-67
2022/04/04 10:48:51;;;;;;;9.88;6.15;;;;;;;10.24;50.22;100820.31;4966083;28;114212;-68
2022/04/04 10:51:34;;;;;;;13.85;6.13;;;;;;;10.22;50.47;100801.84;4969008;28;113703;-68
2022/04/04 10:54:02;;;;;;;10.60;6.65;;;;;;;10.21;50.57;100794.84;4970213;28;123700;-68
2022/04/04 10:56:32;;;;;;;11.38;6.03;;;;;;;10.22;50.90;100791.25;4969466;28;124260;-68
2022/04/04 10:59:18;;;;;;;12.75;6.18;;;;;;;10.22;50.71;100790.41;4972186;28;114712;-67
2022/04/04 11:01:51;;;;;;;12.32;6.40;;;;;;;10.21;50.61;100786.91;4969998;28;113875;-68
2022/04/04 11:04:27;;;;;;;10.50;5.78;;;;;;;10.19;51.28;100785.22;4964620;28;123139;-68
2022/04/04 11:09:57;;;;;;;10.60;5.90;;;;;;;10.13;50.98;100775.78;4957933;28;114532;-68
2022/04/04 11:12:25;;;;;;;10.25;6.30;;;;;;;10.09;51.40;100775.03;4955935;28;114040;-69
2022/04/04 11:15:04;;;;;;;12.45;6.88;;;;;;;10.07;51.40;100781.34;4971354;28;123905;-69
2022/04/04 11:17:38;;;;;;;10.13;5.85;;;;;;;10.07;51.32;100773.41;4954984;28;124304;-69
2022/04/04 11:20:21;;;;;;;10.70;5.78;;;;;;;10.05;51.63;100762.03;4952438;28;115604;-68
2022/04/04 11:22:55;;;;;;;9.45;5.70;;;;;;;10.03;51.75;100763.88;4971734;28;114623;-68
2022/04/04 11:25:26;;;;;;;9.00;5.72;;;;;;;10.02;51.64;100746.28;4956548;28;124034;-68
2022/04/04 11:27:57;;;;;;;8.27;5.28;;;;;;;10.02;51.74;100751.56;4957467;28;125305;-68
2022/04/04 11:30:25;;;;;;;10.13;5.63;;;;;;;10.03;52.07;100753.31;4950828;28;114148;-68
2022/04/04 11:32:57;;;;;;;9.82;5.65;;;;;;;10.03;52.19;100758.59;4962181;28;113843;-68
2022/04/04 11:35:27;;;;;;;7.85;4.88;;;;;;;10.03;52.18;100753.31;4960908;28;124333;-69